Alfred, New York
Current Conditions -  °F | °C
As of 7:56 AM on Friday 28 Nov 2014 (Local Time) from KELZ Reporting Station
Light Snow Light Snow  
Wind Chill: -12°   Ceiling: 4300
Heat Index: -7°   Visibility: 9mi
Dew Point: -10°   Wind: 7mph
Humidity: 81%   Direction: 320°NW
Pressure: 30.15"   Gusts: NA
Location:  42.25°N, 77.79°W
Report Text: KELZ 281256Z AUTO 32006KT 9SM -SN FEW020 OVC043 M07/M10 A3015 RMK AO2 SLP243 P0000 T10721100
Loading
Personal Weather Stations






























Interactive Weather Map New forecast layout! Learn more

10-Day Weather Forecast

Advertisements
Track Severe Weather on mobile